Time;durP1;ratioP1;P1;durP2;ratioP2;P2;SDS_P1;SDS_P2;PMS_P1;PMS_P2;Temp;Humidity;BMP_temperature;BMP_pressure;BME280_temperature;BME280_humidity;BME280_pressure;Samples;Min_cycle;Max_cycle;Signal;HPM_P1;HPM_P2
2023/12/06 00:02:07;;;;;;;;;;;;;;;;;;5055866;28;19931;-83
2023/12/06 00:04:34;;;;;;;;;;;;;;;;;;5054803;28;19925;-84
2023/12/06 00:07:00;;;;;;;;;;;;;;;;;;5055593;28;19924;-82
2023/12/06 00:09:26;;;;;;;;;;;;;;;;;;5055836;28;20465;-83
2023/12/06 00:11:53;;;;;;;;;;;;;;;;;;5053962;28;19932;-82
2023/12/06 00:14:19;;;;;;;;;;;;;;;;;;5054226;28;19924;-82
2023/12/06 00:16:45;;;;;;;;;;;;;;;;;;5055367;28;19932;-82
2023/12/06 00:19:11;;;;;;;;;;;;;;;;;;5054666;28;19931;-83
2023/12/06 00:21:38;;;;;;;;;;;;;;;;;;5055372;28;19924;-84
2023/12/06 00:24:05;;;;;;;;;;;;;;;;;;5055345;28;20434;-83
2023/12/06 00:26:31;;;;;;;;;;;;;;;;;;5055274;28;20000;-84
2023/12/06 00:28:57;;;;;;;;;;;;;;;;;;5055159;28;19925;-83
2023/12/06 00:31:24;;;;;;;;;;;;;;;;;;5055232;28;20023;-83
2023/12/06 00:33:50;;;;;;;;;;;;;;;;;;5050353;28;19976;-84
2023/12/06 00:36:16;;;;;;;;;;;;;;;;;;5055608;28;20011;-83
2023/12/06 00:38:43;;;;;;;;;;;;;;;;;;5054357;28;19978;-84
2023/12/06 00:41:09;;;;;;;;;;;;;;;;;;5054833;28;19925;-84
2023/12/06 00:43:35;;;;;;;;;;;;;;;;;;5055214;28;20019;-84
2023/12/06 00:46:01;;;;;;;;;;;;;;;;;;5055240;28;19925;-84
2023/12/06 00:48:28;;;;;;;;;;;;;;;;;;5055119;28;20008;-85
2023/12/06 00:50:54;;;;;;;;;;;;;;;;;;5055156;28;19931;-84
2023/12/06 00:53:21;;;;;;;;;;;;;;;;;;5055104;28;19961;-84
2023/12/06 00:55:47;;;;;;;;;;;;;;;;;;5053777;28;19971;-84
2023/12/06 00:58:13;;;;;;;;;;;;;;;;;;5054792;28;20015;-84
2023/12/06 01:00:39;;;;;;;;;;;;;;;;;;5055564;28;20027;-84
2023/12/06 01:03:06;;;;;;;;;;;;;;;;;;5054369;28;20379;-84
2023/12/06 01:05:32;;;;;;;;;;;;;;;;;;5055272;28;20011;-84
2023/12/06 01:07:58;;;;;;;;;;;;;;;;;;5054809;28;19931;-84
2023/12/06 01:10:25;;;;;;;;;;;;;;;;;;5055087;28;20323;-84
2023/12/06 01:12:51;;;;;;;;;;;;;;;;;;5053983;28;19925;-84
2023/12/06 01:15:17;;;;;;;;;;;;;;;;;;5054616;28;19947;-84
2023/12/06 01:17:45;;;;;;;;;;;;;;;;;;5054315;28;20016;-84
2023/12/06 01:20:12;;;;;;;;;;;;;;;;;;5054704;28;20024;-84
2023/12/06 01:22:38;;;;;;;;;;;;;;;;;;5052802;28;19932;-82
2023/12/06 01:25:04;;;;;;;;;;;;;;;;;;5053560;28;19932;-83
2023/12/06 01:27:31;;;;;;;;;;;;;;;;;;5052947;28;19931;-85
2023/12/06 01:29:57;;;;;;;;;;;;;;;;;;5054976;28;19931;-83
2023/12/06 01:32:23;;;;;;;;;;;;;;;;;;5054225;28;20383;-82
2023/12/06 01:34:50;;;;;;;;;;;;;;;;;;5054864;28;19931;-83
2023/12/06 01:37:16;;;;;;;;;;;;;;;;;;5053475;28;20291;-83
2023/12/06 01:39:42;;;;;;;;;;;;;;;;;;5054357;28;20019;-84
2023/12/06 01:42:08;;;;;;;;;;;;;;;;;;5053650;28;19925;-83
2023/12/06 01:44:34;;;;;;;;;;;;;;;;;;5054020;28;20016;-83
2023/12/06 01:47:01;;;;;;;;;;;;;;;;;;5054135;28;20383;-83
2023/12/06 01:49:27;;;;;;;;;;;;;;;;;;5054278;28;19955;-84
2023/12/06 01:51:53;;;;;;;;;;;;;;;;;;5054485;28;20011;-84
2023/12/06 01:54:19;;;;;;;;;;;;;;;;;;5054429;28;19925;-84
2023/12/06 01:56:46;;;;;;;;;;;;;;;;;;5052895;28;19931;-84
2023/12/06 01:59:13;;;;;;;;;;;;;;;;;;5054446;28;20298;-84
2023/12/06 02:01:39;;;;;;;;;;;;;;;;;;5054312;28;20027;-85
2023/12/06 02:04:05;;;;;;;;;;;;;;;;;;5054325;28;19925;-84
2023/12/06 02:06:32;;;;;;;;;;;;;;;;;;5052805;28;19932;-84
2023/12/06 02:08:58;;;;;;;;;;;;;;;;;;5053331;28;19932;-84
2023/12/06 02:11:24;;;;;;;;;;;;;;;;;;5054105;28;20023;-82
2023/12/06 02:13:50;;;;;;;;;;;;;;;;;;5053610;28;20287;-82
2023/12/06 02:16:17;;;;;;;;;;;;;;;;;;5054940;28;19925;-82
2023/12/06 02:18:43;;;;;;;;;;;;;;;;;;5053351;28;19925;-82
2023/12/06 02:21:09;;;;;;;;;;;;;;;;;;5054981;28;20016;-82
2023/12/06 02:23:34;;;;;;;;;;;;;;;;;;5054057;28;20402;-82
2023/12/06 02:26:01;;;;;;;;;;;;;;;;;;5054741;28;19927;-82
2023/12/06 02:28:27;;;;;;;;;;;;;;;;;;5054172;28;20268;-82
2023/12/06 02:30:53;;;;;;;;;;;;;;;;;;5054477;28;20015;-82
2023/12/06 02:33:20;;;;;;;;;;;;;;;;;;5054021;28;20011;-84
2023/12/06 02:35:46;;;;;;;;;;;;;;;;;;5053959;28;20019;-83
2023/12/06 02:38:12;;;;;;;;;;;;;;;;;;5052485;28;19932;-82
2023/12/06 02:40:39;;;;;;;;;;;;;;;;;;5054250;28;20016;-82
2023/12/06 02:43:05;;;;;;;;;;;;;;;;;;5053886;28;19928;-82
2023/12/06 02:45:31;;;;;;;;;;;;;;;;;;5054120;28;20016;-83
2023/12/06 02:47:57;;;;;;;;;;;;;;;;;;5053998;28;20291;-83
2023/12/06 02:50:24;;;;;;;;;;;;;;;;;;5058217;28;19924;-84
2023/12/06 02:52:50;;;;;;;;;;;;;;;;;;5057463;28;19931;-84
2023/12/06 02:55:16;;;;;;;;;;;;;;;;;;5057717;28;20449;-84
2023/12/06 02:57:42;;;;;;;;;;;;;;;;;;5057195;28;19947;-83
2023/12/06 03:00:09;;;;;;;;;;;;;;;;;;5056415;28;19925;-83
2023/12/06 03:02:35;;;;;;;;;;;;;;;;;;5057394;28;19928;-84
2023/12/06 03:05:01;;;;;;;;;;;;;;;;;;5058297;28;20011;-83
2023/12/06 03:07:28;;;;;;;;;;;;;;;;;;5057527;28;19984;-83
2023/12/06 03:09:54;;;;;;;;;;;;;;;;;;5057861;28;19925;-84
2023/12/06 03:12:20;;;;;;;;;;;;;;;;;;5056937;28;19931;-84
2023/12/06 03:14:46;;;;;;;;;;;;;;;;;;5057492;28;20019;-84
2023/12/06 03:17:14;;;;;;;;;;;;;;;;;;5057349;28;19925;-84
2023/12/06 03:19:40;;;;;;;;;;;;;;;;;;5057636;28;19963;-84
2023/12/06 03:22:06;;;;;;;;;;;;;;;;;;5056971;28;19925;-84
2023/12/06 03:24:32;;;;;;;;;;;;;;;;;;5057409;28;20387;-84
2023/12/06 03:26:59;;;;;;;;;;;;;;;;;;5057059;28;20019;-84
2023/12/06 03:29:25;;;;;;;;;;;;;;;;;;5056117;28;19935;-83
2023/12/06 03:31:51;;;;;;;;;;;;;;;;;;5057209;28;20016;-83
2023/12/06 03:34:17;;;;;;;;;;;;;;;;;;5057118;28;20020;-83
2023/12/06 03:36:44;;;;;;;;;;;;;;;;;;5057018;28;20012;-83
2023/12/06 03:39:10;;;;;;;;;;;;;;;;;;5056785;28;20450;-82
2023/12/06 03:41:36;;;;;;;;;;;;;;;;;;5056078;28;19925;-84
2023/12/06 03:44:02;;;;;;;;;;;;;;;;;;5056261;28;20280;-83
2023/12/06 03:46:29;;;;;;;;;;;;;;;;;;5056472;28;20019;-83
2023/12/06 03:48:55;;;;;;;;;;;;;;;;;;5056091;28;19929;-83
2023/12/06 03:51:21;;;;;;;;;;;;;;;;;;5057101;28;20015;-83
2023/12/06 03:53:47;;;;;;;;;;;;;;;;;;5057047;28;20294;-83
2023/12/06 03:56:14;;;;;;;;;;;;;;;;;;5056605;28;19931;-83
2023/12/06 03:58:40;;;;;;;;;;;;;;;;;;5056036;28;20275;-83
2023/12/06 04:01:07;;;;;;;;;;;;;;;;;;5056580;28;19931;-83
2023/12/06 04:03:33;;;;;;;;;;;;;;;;;;5056409;28;19932;-83
2023/12/06 04:06:00;;;;;;;;;;;;;;;;;;5056609;28;19931;-83
2023/12/06 04:08:26;;;;;;;;;;;;;;;;;;5056214;28;20294;-83
2023/12/06 04:10:52;;;;;;;;;;;;;;;;;;5056538;28;20031;-83
2023/12/06 04:13:18;;;;;;;;;;;;;;;;;;5056020;28;19931;-83
2023/12/06 04:15:45;;;;;;;;;;;;;;;;;;5055882;28;20294;-84
2023/12/06 04:18:11;;;;;;;;;;;;;;;;;;5056102;28;19980;-82
2023/12/06 04:20:37;;;;;;;;;;;;;;;;;;5055994;28;19971;-83
2023/12/06 04:23:04;;;;;;;;;;;;;;;;;;5055318;28;19925;-82
2023/12/06 04:25:30;;;;;;;;;;;;;;;;;;5056061;28;20008;-82
2023/12/06 04:27:56;;;;;;;;;;;;;;;;;;5055862;28;20302;-82
2023/12/06 04:30:22;;;;;;;;;;;;;;;;;;5056460;28;19931;-82
2023/12/06 04:32:49;;;;;;;;;;;;;;;;;;5055476;28;20463;-83
2023/12/06 04:35:15;;;;;;;;;;;;;;;;;;5056251;28;20019;-82
2023/12/06 04:37:41;;;;;;;;;;;;;;;;;;5055747;28;20007;-82
2023/12/06 04:40:07;;;;;;;;;;;;;;;;;;5055799;28;19931;-82
2023/12/06 04:42:34;;;;;;;;;;;;;;;;;;5055643;28;19925;-82
2023/12/06 04:44:59;;;;;;;;;;;;;;;;;;5055648;28;20417;-83
2023/12/06 04:47:25;;;;;;;;;;;;;;;;;;5055623;28;20007;-82
2023/12/06 04:49:52;;;;;;;;;;;;;;;;;;5055729;28;19947;-82
2023/12/06 04:52:18;;;;;;;;;;;;;;;;;;5055798;28;20007;-82
2023/12/06 04:54:45;;;;;;;;;;;;;;;;;;5055792;28;19924;-82
2023/12/06 04:57:11;;;;;;;;;;;;;;;;;;5055903;28;20004;-82
2023/12/06 04:59:37;;;;;;;;;;;;;;;;;;5055864;28;19924;-82
2023/12/06 05:02:04;;;;;;;;;;;;;;;;;;5055280;28;20023;-82
2023/12/06 05:04:32;;;;;;;;;;;;;;;;;;5054921;28;20159;-82
2023/12/06 05:06:58;;;;;;;;;;;;;;;;;;5055596;28;19925;-82
2023/12/06 05:09:25;;;;;;;;;;;;;;;;;;5055707;28;20357;-82
2023/12/06 05:11:51;;;;;;;;;;;;;;;;;;5054578;28;19931;-82
2023/12/06 05:14:17;;;;;;;;;;;;;;;;;;5055658;28;20012;-82
2023/12/06 05:16:43;;;;;;;;;;;;;;;;;;5055495;28;19992;-82
2023/12/06 05:19:10;;;;;;;;;;;;;;;;;;5054641;28;19925;-82
2023/12/06 05:21:36;;;;;;;;;;;;;;;;;;5055055;28;20016;-82
2023/12/06 05:24:02;;;;;;;;;;;;;;;;;;5055257;28;19931;-82
2023/12/06 05:26:29;;;;;;;;;;;;;;;;;;5054634;28;20458;-82
2023/12/06 05:28:58;;;;;;;;;;;;;;;;;;5055019;28;20398;-82
2023/12/06 05:31:24;;;;;;;;;;;;;;;;;;5054833;28;20012;-82
2023/12/06 05:33:50;;;;;;;;;;;;;;;;;;5054892;28;20450;-82
2023/12/06 05:36:17;;;;;;;;;;;;;;;;;;5055062;28;20027;-82
2023/12/06 05:38:43;;;;;;;;;;;;;;;;;;5054598;28;20009;-82
2023/12/06 05:41:10;;;;;;;;;;;;;;;;;;5053790;28;19925;-82
2023/12/06 05:43:36;;;;;;;;;;;;;;;;;;5054456;28;19931;-82
2023/12/06 05:46:02;;;;;;;;;;;;;;;;;;5053712;28;19924;-82
2023/12/06 05:48:28;;;;;;;;;;;;;;;;;;5054685;28;20004;-82
2023/12/06 05:50:55;;;;;;;;;;;;;;;;;;5054426;28;19931;-82
2023/12/06 05:53:23;;;;;;;;;;;;;;;;;;5054483;28;19929;-82
2023/12/06 05:55:49;;;;;;;;;;;;;;;;;;5053547;28;20294;-82
2023/12/06 05:58:15;;;;;;;;;;;;;;;;;;5054620;28;19932;-82
2023/12/06 06:00:42;;;;;;;;;;;;;;;;;;5054833;28;20381;-82
2023/12/06 06:03:08;;;;;;;;;;;;;;;;;;5054398;28;19931;-82
2023/12/06 06:05:34;;;;;;;;;;;;;;;;;;5054737;28;19931;-82
2023/12/06 06:08:02;;;;;;;;;;;;;;;;;;5053470;28;19925;-82
2023/12/06 06:10:29;;;;;;;;;;;;;;;;;;5055320;28;19925;-81
2023/12/06 06:12:55;;;;;;;;;;;;;;;;;;5054815;28;20450;-82
2023/12/06 06:15:21;;;;;;;;;;;;;;;;;;5055771;28;19929;-82
2023/12/06 06:17:48;;;;;;;;;;;;;;;;;;5054691;28;20007;-82
2023/12/06 06:20:14;;;;;;;;;;;;;;;;;;5054722;28;20012;-82
2023/12/06 06:22:41;;;;;;;;;;;;;;;;;;5055548;28;19931;-82
2023/12/06 06:25:08;;;;;;;;;;;;;;;;;;5058965;28;19925;-82
2023/12/06 06:27:35;;;;;;;;;;;;;;;;;;5058134;28;20378;-81
2023/12/06 06:30:01;;;;;;;;;;;;;;;;;;5057998;28;20379;-82
2023/12/06 06:32:27;;;;;;;;;;;;;;;;;;5058434;28;20015;-82
2023/12/06 06:34:53;;;;;;;;;;;;;;;;;;5059990;28;19972;-82
2023/12/06 06:37:20;;;;;;;;;;;;;;;;;;5059145;28;20409;-82
2023/12/06 06:39:48;;;;;;;;;;;;;;;;;;5059909;28;19931;-81
2023/12/06 06:42:14;;;;;;;;;;;;;;;;;;5059115;28;19925;-81
2023/12/06 06:44:40;;;;;;;;;;;;;;;;;;5060312;28;19931;-81
2023/12/06 06:47:07;;;;;;;;;;;;;;;;;;5059993;28;20003;-81
2023/12/06 06:49:35;;;;;;;;;;;;;;;;;;5059407;28;20355;-81
2023/12/06 06:52:01;;;;;;;;;;;;;;;;;;5058835;28;19960;-81
2023/12/06 06:54:28;;;;;;;;;;;;;;;;;;5058557;28;19925;-81
2023/12/06 06:56:54;;;;;;;;;;;;;;;;;;5057824;28;20454;-81
2023/12/06 06:59:20;;;;;;;;;;;;;;;;;;5058313;28;20031;-82
2023/12/06 07:01:47;;;;;;;;;;;;;;;;;;5057269;28;20008;-82
2023/12/06 07:04:13;;;;;;;;;;;;;;;;;;5057664;28;19925;-82
2023/12/06 07:06:40;;;;;;;;;;;;;;;;;;5056028;28;20348;-81
2023/12/06 07:09:08;;;;;;;;;;;;;;;;;;5056331;28;20496;-82
2023/12/06 07:11:34;;;;;;;;;;;;;;;;;;5055691;28;19970;-83
2023/12/06 07:14:02;;;;;;;;;;;;;;;;;;5057102;28;20298;-81
2023/12/06 07:16:28;;;;;;;;;;;;;;;;;;5056671;28;19927;-81
2023/12/06 07:18:55;;;;;;;;;;;;;;;;;;5057717;28;20019;-82
2023/12/06 07:21:21;;;;;;;;;;;;;;;;;;5057537;28;19934;-82
2023/12/06 07:23:47;;;;;;;;;;;;;;;;;;5056698;28;19931;-82
2023/12/06 07:26:14;;;;;;;;;;;;;;;;;;5057075;28;19925;-81
2023/12/06 07:28:40;;;;;;;;;;;;;;;;;;5056116;28;19931;-81
2023/12/06 07:31:07;;;;;;;;;;;;;;;;;;5057409;28;20019;-83
2023/12/06 07:33:35;;;;;;;;;;;;;;;;;;5056701;28;20338;-81
2023/12/06 07:36:01;;;;;;;;;;;;;;;;;;5057476;28;19924;-82
2023/12/06 07:38:28;;;;;;;;;;;;;;;;;;5055705;28;19936;-81
2023/12/06 07:40:54;;;;;;;;;;;;;;;;;;5057788;28;19931;-80
2023/12/06 07:43:21;;;;;;;;;;;;;;;;;;5057185;28;19954;-80
2023/12/06 07:45:47;;;;;;;;;;;;;;;;;;5056940;28;20020;-81
2023/12/06 07:48:13;;;;;;;;;;;;;;;;;;5056877;28;19925;-80
2023/12/06 07:50:39;;;;;;;;;;;;;;;;;;5057179;28;19999;-80
2023/12/06 07:53:07;;;;;;;;;;;;;;;;;;5057093;28;20011;-81
2023/12/06 07:55:33;;;;;;;;;;;;;;;;;;5057654;28;19925;-81
2023/12/06 07:58:02;;;;;;;;;;;;;;;;;;5056929;28;20358;-81
2023/12/06 08:00:28;;;;;;;;;;;;;;;;;;5057226;28;19932;-82
2023/12/06 08:02:54;;;;;;;;;;;;;;;;;;5055816;28;20294;-83
2023/12/06 08:05:21;;;;;;;;;;;;;;;;;;5057094;28;19988;-81
2023/12/06 08:07:47;;;;;;;;;;;;;;;;;;5056753;28;19964;-80
2023/12/06 08:10:19;;;;;;;;;;;;;;;;;;5056961;28;19964;-81
2023/12/06 08:12:45;;;;;;;;;;;;;;;;;;5056499;28;20387;-80
2023/12/06 08:15:12;;;;;;;;;;;;;;;;;;5057137;28;19931;-81
2023/12/06 08:17:38;;;;;;;;;;;;;;;;;;5055585;28;19931;-81
2023/12/06 08:20:07;;;;;;;;;;;;;;;;;;5057380;28;20019;-81
2023/12/06 08:22:33;;;;;;;;;;;;;;;;;;5056877;28;20302;-81
2023/12/06 08:25:00;;;;;;;;;;;;;;;;;;5056071;28;19924;-81
2023/12/06 08:27:27;;;;;;;;;;;;;;;;;;5056860;28;19925;-80
2023/12/06 08:29:54;;;;;;;;;;;;;;;;;;5056687;28;19931;-79
2023/12/06 08:32:20;;;;;;;;;;;;;;;;;;5057065;28;20011;-82
2023/12/06 08:34:47;;;;;;;;;;;;;;;;;;5057542;28;20015;-81
2023/12/06 08:37:13;;;;;;;;;;;;;;;;;;5057353;28;20016;-80
2023/12/06 08:39:39;;;;;;;;;;;;;;;;;;5056991;28;19925;-80
2023/12/06 08:42:06;;;;;;;;;;;;;;;;;;5055371;28;20395;-80
2023/12/06 08:44:33;;;;;;;;;;;;;;;;;;5056602;28;20039;-80
2023/12/06 08:47:00;;;;;;;;;;;;;;;;;;5056054;28;19929;-80
2023/12/06 08:49:26;;;;;;;;;;;;;;;;;;5056857;28;20015;-81
2023/12/06 08:51:53;;;;;;;;;;;;;;;;;;5054689;28;19924;-80
2023/12/06 08:54:19;;;;;;;;;;;;;;;;;;5055922;28;19931;-82
2023/12/06 08:56:45;;;;;;;;;;;;;;;;;;5055380;28;19971;-82
2023/12/06 08:59:12;;;;;;;;;;;;;;;;;;5054162;28;19925;-82
2023/12/06 09:01:39;;;;;;;;;;;;;;;;;;5055167;28;19935;-81
2023/12/06 09:04:05;;;;;;;;;;;;;;;;;;5055170;28;19929;-82
2023/12/06 09:06:31;;;;;;;;;;;;;;;;;;5054619;28;19932;-80
2023/12/06 09:08:58;;;;;;;;;;;;;;;;;;5054796;28;19936;-81
2023/12/06 09:11:25;;;;;;;;;;;;;;;;;;5056606;28;19932;-80
2023/12/06 09:13:51;;;;;;;;;;;;;;;;;;5055772;28;20442;-82
2023/12/06 09:16:17;;;;;;;;;;;;;;;;;;5054778;28;19928;-80
2023/12/06 09:18:43;;;;;;;;;;;;;;;;;;5053245;28;19925;-81
2023/12/06 09:21:10;;;;;;;;;;;;;;;;;;5055164;28;20011;-80
2023/12/06 09:23:36;;;;;;;;;;;;;;;;;;5054654;28;19925;-82
2023/12/06 09:26:02;;;;;;;;;;;;;;;;;;5053819;28;19925;-80
2023/12/06 09:28:29;;;;;;;;;;;;;;;;;;5055058;28;19932;-81
2023/12/06 09:30:55;;;;;;;;;;;;;;;;;;5054375;28;19931;-82
2023/12/06 09:33:21;;;;;;;;;;;;;;;;;;5055120;28;20027;-81
2023/12/06 09:35:48;;;;;;;;;;;;;;;;;;5055336;28;20024;-81
2023/12/06 09:38:14;;;;;;;;;;;;;;;;;;5053740;28;19925;-81
2023/12/06 09:40:40;;;;;;;;;;;;;;;;;;5054436;28;19925;-82
2023/12/06 09:43:07;;;;;;;;;;;;;;;;;;5054985;28;20011;-82
2023/12/06 09:45:33;;;;;;;;;;;;;;;;;;5053616;28;20411;-82
2023/12/06 09:48:00;;;;;;;;;;;;;;;;;;5054118;28;19925;-81
2023/12/06 09:50:26;;;;;;;;;;;;;;;;;;5055289;28;20356;-82
2023/12/06 09:52:52;;;;;;;;;;;;;;;;;;5055265;28;20286;-81
2023/12/06 09:55:18;;;;;;;;;;;;;;;;;;5055267;28;20035;-82
2023/12/06 09:57:46;;;;;;;;;;;;;;;;;;5054951;28;19924;-82
2023/12/06 10:00:13;;;;;;;;;;;;;;;;;;5055593;28;20007;-82
2023/12/06 10:02:40;;;;;;;;;;;;;;;;;;5054941;28;19924;-82
2023/12/06 10:05:07;;;;;;;;;;;;;;;;;;5054709;28;20405;-81
2023/12/06 10:07:34;;;;;;;;;;;;;;;;;;5055135;28;20003;-81
2023/12/06 10:10:00;;;;;;;;;;;;;;;;;;5053936;28;19928;-82
2023/12/06 10:12:26;;;;;;;;;;;;;;;;;;5054777;28;19925;-81
2023/12/06 10:14:56;;;;;;;;;;;;;;;;;;5054712;28;19931;-81
2023/12/06 10:17:22;;;;;;;;;;;;;;;;;;5054254;28;19925;-82
2023/12/06 10:19:49;;;;;;;;;;;;;;;;;;5055546;28;20023;-82
2023/12/06 10:22:15;;;;;;;;;;;;;;;;;;5055313;28;20282;-81
2023/12/06 10:24:41;;;;;;;;;;;;;;;;;;5054650;28;20011;-82
2023/12/06 10:27:11;;;;;;;;;;;;;;;;;;5053062;28;19931;-82
2023/12/06 10:29:37;;;;;;;;;;;;;;;;;;5053258;28;20391;-82
2023/12/06 10:32:04;;;;;;;;;;;;;;;;;;5054642;28;20422;-82
2023/12/06 10:34:30;;;;;;;;;;;;;;;;;;5055079;28;20003;-82
2023/12/06 10:36:56;;;;;;;;;;;;;;;;;;5053279;28;19932;-82
2023/12/06 10:39:23;;;;;;;;;;;;;;;;;;5054997;28;19931;-82
2023/12/06 10:41:49;;;;;;;;;;;;;;;;;;5054598;28;19960;-82
2023/12/06 10:44:15;;;;;;;;;;;;;;;;;;5055487;28;19931;-82
2023/12/06 10:46:41;;;;;;;;;;;;;;;;;;5054478;28;19925;-82
2023/12/06 10:49:08;;;;;;;;;;;;;;;;;;5055307;28;20023;-82
2023/12/06 10:51:34;;;;;;;;;;;;;;;;;;5054544;28;19964;-82
2023/12/06 10:54:01;;;;;;;;;;;;;;;;;;5053652;28;19968;-82
2023/12/06 10:56:28;;;;;;;;;;;;;;;;;;5053427;28;20365;-82
2023/12/06 10:58:54;;;;;;;;;;;;;;;;;;5054913;28;20429;-81
2023/12/06 11:01:21;;;;;;;;;;;;;;;;;;5053356;28;19979;-82
2023/12/06 11:03:47;;;;;;;;;;;;;;;;;;5054307;28;19999;-82
2023/12/06 11:06:13;;;;;;;;;;;;;;;;;;5054745;28;19931;-82
2023/12/06 11:08:39;;;;;;;;;;;;;;;;;;5054386;28;20003;-82
2023/12/06 11:11:06;;;;;;;;;;;;;;;;;;5057922;28;20450;-82
2023/12/06 11:13:32;;;;;;;;;;;;;;;;;;5057425;28;19931;-82
2023/12/06 11:15:58;;;;;;;;;;;;;;;;;;5058538;28;20470;-82
2023/12/06 11:18:25;;;;;;;;;;;;;;;;;;5058028;28;19932;-82
2023/12/06 11:20:52;;;;;;;;;;;;;;;;;;5058497;28;19925;-83
2023/12/06 11:23:18;;;;;;;;;;;;;;;;;;5057872;28;19925;-82
2023/12/06 11:25:45;;;;;;;;;;;;;;;;;;5057977;28;19964;-81
2023/12/06 11:28:11;;;;;;;;;;;;;;;;;;5058256;28;20305;-82
2023/12/06 11:30:37;;;;;;;;;;;;;;;;;;5056797;28;20306;-82
2023/12/06 11:33:04;;;;;;;;;;;;;;;;;;5057727;28;19925;-82
2023/12/06 11:35:30;;;;;;;;;;;;;;;;;;5057045;28;19925;-82
2023/12/06 11:37:57;;;;;;;;;;;;;;;;;;5058070;28;20355;-83
2023/12/06 11:40:23;;;;;;;;;;;;;;;;;;5058200;28;19931;-82
2023/12/06 11:42:49;;;;;;;;;;;;;;;;;;5056351;28;19929;-82
2023/12/06 11:45:16;;;;;;;;;;;;;;;;;;5056273;28;20019;-82
2023/12/06 11:47:42;;;;;;;;;;;;;;;;;;5057676;28;20012;-82
2023/12/06 11:50:08;;;;;;;;;;;;;;;;;;5057607;28;20031;-82
2023/12/06 11:52:34;;;;;;;;;;;;;;;;;;5057246;28;19931;-83
2023/12/06 11:55:01;;;;;;;;;;;;;;;;;;5056789;28;20379;-83
2023/12/06 11:57:27;;;;;;;;;;;;;;;;;;5056666;28;19932;-83
2023/12/06 11:59:53;;;;;;;;;;;;;;;;;;5055787;28;19924;-82
2023/12/06 12:02:20;;;;;;;;;;;;;;;;;;5056900;28;20362;-82
2023/12/06 12:04:46;;;;;;;;;;;;;;;;;;5055361;28;19924;-83
2023/12/06 12:07:13;;;;;;;;;;;;;;;;;;5056472;28;20004;-82
2023/12/06 12:09:40;;;;;;;;;;;;;;;;;;5055438;28;19928;-83
2023/12/06 12:12:06;;;;;;;;;;;;;;;;;;5055956;28;19925;-82
2023/12/06 12:14:32;;;;;;;;;;;;;;;;;;5055627;28;19955;-82
2023/12/06 12:17:02;;;;;;;;;;;;;;;;;;5055187;28;19929;-82
2023/12/06 12:19:28;;;;;;;;;;;;;;;;;;5056394;28;20413;-82
2023/12/06 12:21:54;;;;;;;;;;;;;;;;;;5054872;28;19925;-82
2023/12/06 12:24:22;;;;;;;;;;;;;;;;;;5054828;28;19929;-82
2023/12/06 12:26:48;;;;;;;;;;;;;;;;;;5055899;28;19947;-83
2023/12/06 12:29:14;;;;;;;;;;;;;;;;;;5056058;28;20016;-81
2023/12/06 12:31:40;;;;;;;;;;;;;;;;;;5055781;28;19925;-82
2023/12/06 12:34:07;;;;;;;;;;;;;;;;;;5056430;28;20031;-82
2023/12/06 12:36:33;;;;;;;;;;;;;;;;;;5055878;28;19975;-83
2023/12/06 12:38:59;;;;;;;;;;;;;;;;;;5056268;28;20027;-83
2023/12/06 12:41:26;;;;;;;;;;;;;;;;;;5055674;28;20425;-82
2023/12/06 12:43:52;;;;;;;;;;;;;;;;;;5055244;28;19932;-82
2023/12/06 12:46:20;;;;;;;;;;;;;;;;;;5055697;28;19925;-81
2023/12/06 12:48:46;;;;;;;;;;;;;;;;;;5054870;28;19978;-82
2023/12/06 12:51:13;;;;;;;;;;;;;;;;;;5055653;28;19933;-82
2023/12/06 12:53:39;;;;;;;;;;;;;;;;;;5052562;28;19935;-82
2023/12/06 12:56:05;;;;;;;;;;;;;;;;;;5055470;28;19925;-82
2023/12/06 12:58:35;;;;;;;;;;;;;;;;;;5053421;28;19929;-83
2023/12/06 13:01:03;;;;;;;;;;;;;;;;;;5055590;28;20295;-83
2023/12/06 13:03:31;;;;;;;;;;;;;;;;;;5054557;28;19929;-82
2023/12/06 13:05:58;;;;;;;;;;;;;;;;;;5050375;28;19924;-82
2023/12/06 13:08:24;;;;;;;;;;;;;;;;;;5055769;28;19931;-83
2023/12/06 13:10:51;;;;;;;;;;;;;;;;;;5053552;28;19925;-82
2023/12/06 13:13:17;;;;;;;;;;;;;;;;;;5054917;28;19960;-82
2023/12/06 13:15:44;;;;;;;;;;;;;;;;;;5053273;28;19932;-82
2023/12/06 13:18:10;;;;;;;;;;;;;;;;;;5054510;28;19932;-82
2023/12/06 13:20:36;;;;;;;;;;;;;;;;;;5054064;28;19932;-83
2023/12/06 13:23:03;;;;;;;;;;;;;;;;;;5054916;28;20012;-83
2023/12/06 13:25:30;;;;;;;;;;;;;;;;;;5053991;28;19936;-83
2023/12/06 13:27:58;;;;;;;;;;;;;;;;;;5055278;28;19932;-82
2023/12/06 13:30:24;;;;;;;;;;;;;;;;;;5058870;28;20327;-82
2023/12/06 13:32:50;;;;;;;;;;;;;;;;;;5053950;28;20023;-82
2023/12/06 13:35:17;;;;;;;;;;;;;;;;;;5054830;28;20027;-81
2023/12/06 13:37:43;;;;;;;;;;;;;;;;;;5052479;28;19972;-81
2023/12/06 13:40:09;;;;;;;;;;;;;;;;;;5053165;28;19929;-81
2023/12/06 13:42:36;;;;;;;;;;;;;;;;;;5052338;28;19925;-81
2023/12/06 13:45:02;;;;;;;;;;;;;;;;;;5054456;28;20457;-81
2023/12/06 13:47:28;;;;;;;;;;;;;;;;;;5053799;28;19924;-81
2023/12/06 13:49:54;;;;;;;;;;;;;;;;;;5054417;28;19957;-81
2023/12/06 13:52:21;;;;;;;;;;;;;;;;;;5053504;28;20389;-82
2023/12/06 13:54:47;;;;;;;;;;;;;;;;;;5053782;28;20383;-83
2023/12/06 13:57:14;;;;;;;;;;;;;;;;;;5052767;28;20409;-82
2023/12/06 13:59:40;;;;;;;;;;;;;;;;;;5053943;28;19966;-83
2023/12/06 14:02:06;;;;;;;;;;;;;;;;;;5053795;28;19925;-83
2023/12/06 14:04:35;;;;;;;;;;;;;;;;;;5052723;28;19931;-82
2023/12/06 14:07:01;;;;;;;;;;;;;;;;;;5053153;28;20330;-82
2023/12/06 14:09:30;;;;;;;;;;;;;;;;;;5054185;28;19931;-83
2023/12/06 14:11:56;;;;;;;;;;;;;;;;;;5051377;28;19924;-83
2023/12/06 14:14:22;;;;;;;;;;;;;;;;;;5054013;28;20019;-82
2023/12/06 14:16:50;;;;;;;;;;;;;;;;;;5053377;28;19924;-81
2023/12/06 14:19:16;;;;;;;;;;;;;;;;;;5053845;28;19967;-81
2023/12/06 14:21:43;;;;;;;;;;;;;;;;;;5052457;28;19925;-82
2023/12/06 14:24:09;;;;;;;;;;;;;;;;;;5054096;28;19936;-82
2023/12/06 14:26:35;;;;;;;;;;;;;;;;;;5052407;28;19925;-81
2023/12/06 14:29:03;;;;;;;;;;;;;;;;;;5052958;28;20383;-80
2023/12/06 14:31:29;;;;;;;;;;;;;;;;;;5053286;28;19925;-82
2023/12/06 14:33:56;;;;;;;;;;;;;;;;;;5053323;28;20287;-81
2023/12/06 14:36:23;;;;;;;;;;;;;;;;;;5053399;28;19924;-82
2023/12/06 14:38:49;;;;;;;;;;;;;;;;;;5052682;28;19931;-81
2023/12/06 14:41:15;;;;;;;;;;;;;;;;;;5053041;28;19931;-81
2023/12/06 14:43:42;;;;;;;;;;;;;;;;;;5054674;28;19933;-81
2023/12/06 14:46:08;;;;;;;;;;;;;;;;;;5056311;28;19956;-82
2023/12/06 14:48:36;;;;;;;;;;;;;;;;;;5056147;28;19925;-82
2023/12/06 14:51:02;;;;;;;;;;;;;;;;;;5057002;28;19925;-81
2023/12/06 14:53:29;;;;;;;;;;;;;;;;;;5057539;28;20023;-81
2023/12/06 14:55:55;;;;;;;;;;;;;;;;;;5056648;28;19924;-81
2023/12/06 14:58:21;;;;;;;;;;;;;;;;;;5057409;28;20027;-83
2023/12/06 15:00:49;;;;;;;;;;;;;;;;;;5056609;28;19925;-81
2023/12/06 15:03:15;;;;;;;;;;;;;;;;;;5056872;28;20452;-81
2023/12/06 15:05:42;;;;;;;;;;;;;;;;;;5056633;28;19924;-81
2023/12/06 15:08:08;;;;;;;;;;;;;;;;;;5057413;28;19925;-82
2023/12/06 15:10:34;;;;;;;;;;;;;;;;;;5056755;28;20023;-82
2023/12/06 15:13:00;;;;;;;;;;;;;;;;;;5056711;28;19925;-81
2023/12/06 15:15:27;;;;;;;;;;;;;;;;;;5056023;28;19925;-83
2023/12/06 15:17:53;;;;;;;;;;;;;;;;;;5056743;28;19931;-82
2023/12/06 15:20:20;;;;;;;;;;;;;;;;;;5055760;28;19929;-83
2023/12/06 15:22:46;;;;;;;;;;;;;;;;;;5056535;28;19931;-81
2023/12/06 15:25:12;;;;;;;;;;;;;;;;;;5056664;28;20379;-81
2023/12/06 15:27:38;;;;;;;;;;;;;;;;;;5056316;28;19925;-82
2023/12/06 15:30:05;;;;;;;;;;;;;;;;;;5056950;28;20015;-82
2023/12/06 15:32:32;;;;;;;;;;;;;;;;;;5056865;28;19925;-80
2023/12/06 15:34:58;;;;;;;;;;;;;;;;;;5056810;28;19932;-80
2023/12/06 15:37:24;;;;;;;;;;;;;;;;;;5056764;28;19925;-81
2023/12/06 15:39:51;;;;;;;;;;;;;;;;;;5057425;28;19932;-79
2023/12/06 15:42:18;;;;;;;;;;;;;;;;;;5055948;28;20383;-81
2023/12/06 15:44:44;;;;;;;;;;;;;;;;;;5057760;28;19948;-82
2023/12/06 15:47:10;;;;;;;;;;;;;;;;;;5056070;28;19928;-82
2023/12/06 15:49:37;;;;;;;;;;;;;;;;;;5056954;28;19931;-80
2023/12/06 15:52:03;;;;;;;;;;;;;;;;;;5056835;28;19925;-81
2023/12/06 15:54:30;;;;;;;;;;;;;;;;;;5057074;28;19929;-81
2023/12/06 15:56:58;;;;;;;;;;;;;;;;;;5056053;28;19931;-83
2023/12/06 15:59:24;;;;;;;;;;;;;;;;;;5055373;28;19924;-82
2023/12/06 16:01:50;;;;;;;;;;;;;;;;;;5055862;28;20301;-83
2023/12/06 16:04:17;;;;;;;;;;;;;;;;;;5054952;28;19925;-81
2023/12/06 16:06:43;;;;;;;;;;;;;;;;;;5060976;28;19924;-81
2023/12/06 16:09:09;;;;;;;;;;;;;;;;;;5056408;28;19947;-81
2023/12/06 16:11:35;;;;;;;;;;;;;;;;;;5059361;28;20455;-81
2023/12/06 16:14:02;;;;;;;;;;;;;;;;;;5056345;28;19925;-82
2023/12/06 16:16:28;;;;;;;;;;;;;;;;;;5054176;28;20421;-82
2023/12/06 16:18:54;;;;;;;;;;;;;;;;;;5056034;28;20011;-83
2023/12/06 16:21:21;;;;;;;;;;;;;;;;;;5055378;28;19929;-80
2023/12/06 16:23:47;;;;;;;;;;;;;;;;;;5054898;28;19925;-81
2023/12/06 16:26:13;;;;;;;;;;;;;;;;;;5054133;28;19932;-81
2023/12/06 16:28:40;;;;;;;;;;;;;;;;;;5054359;28;19931;-81
2023/12/06 16:31:06;;;;;;;;;;;;;;;;;;5054130;28;19925;-81
2023/12/06 16:33:33;;;;;;;;;;;;;;;;;;5055345;28;19925;-81
2023/12/06 16:35:59;;;;;;;;;;;;;;;;;;5054088;28;19925;-81
2023/12/06 16:38:26;;;;;;;;;;;;;;;;;;5055582;28;19931;-81
2023/12/06 16:40:52;;;;;;;;;;;;;;;;;;5055141;28;20024;-81